01:01
Airports
History
Links
Donate
Help keep this website running!
PayPal
Bitcoin
Information on this page is community maintained and may be outdated or inaccurate and is intended for reference only or PC simulator navigating.
Always use approved charts for navigating.
EDAW
ROITZSCHJORA
ROITZSCHJORA (EDAW)
Löbnitz, Saxony, Germany (4509)
(C)
Lat/Lng:51° 34' 37.06" N / 12° 29' 39.55" E
51.57696 / 12.494319
Elevation:289'ft 88mMSL
ID / ICAO:EDAW
Runways:1
Longest:(10-28) 1,190.9m 3,907ft Grass
Controlled:Yes
Distance To
Airport ID:
Airport Radio Frequencies
INFO: 122
Nearby VORs <50NM
Nearby NDBs
Nearby WeatherUpdated 05-23-17 00:50 GMT
Nearby weather at EDDP, Leipzig-Halle located 15.4 nautical miles from EDAW
Altimeter: 30.03
Visibility: 6.2 statute miles
Wind: 2 knots (VRB°)
Temp: 11°c 52°f
Humidity: 76.3%

METAR: EDDP 230050Z VRB02KT CAVOK 11/07 Q1017 NOSIG

(Powered by phpweather)
Runway 10 / 28
Dimensions:1190.9 x 50m 3907' x 164'ft
Surface:Grass
Runway 10 [A]Runway 28 [B]
Heading:099°TH 279°TH
Lat:
Lng:
51° 34' 40.22"N
12° 29' 9.02"E
51° 34' 33.89"N
12° 30' 10.08"E
User Notes and Comments
Google Map
Nearby Airports
(C) RENNERITZ 11.1 NM
EDOX W 276°
(C) TAUCHA 12.7 NM
EDCT S 171°
(C) Leipzig-Halle 15.4 NM
EDDP (WX) SW 226°
(C) Halle-Oppin 19.0 NM
EDAQ W 264°
(U) DESSAU 22.1 NM
EDAD NW 322°
(U) Koethen 25.5 NM
EDCK WNW 293°
(C) BOEHLEN 25.6 NM
EDOE SSW 192°
VFR Chart
Flight Planning at SkyVector.com